Estación municipal de Seva (Osona, P.N. del Montseny)

Consulta los datos en tiempo real de la estación municipal de Seva





Hora UTC 19:05
Temperatura 15.1 ºC
Suelo 15 cm 14.2 ºC
Humedad 68.3 %
Presión 1013.4 hPa
Pluja 0.0 mm
Velocidad viento 6.8 km/h
Dirección viento SW
Radiación solar 1.7 W/m²

Webcam

Datos diarios 2026-05-10



Hora UTC (invierno +1h; verano +2h)
Temperatura (ºC) Humedad (%) Presión (hPa) Velocidad viento (km/h) Precipitación (mm) Radiación solar (W/m²)
Hora UTC Aire Suelo 15 cm Humedad Presión Vel. Dir. Vel. Max Dir. Intent. máx 5 min. Rad. Sol.
00:05 10.6 9.6 98.8 1015.1 1.2 ENE 1.2 NE 0.0 0.0
00:10 10.4 9.2 98.8 1015.0 1.7 ESE 2.5 ESE 0.0 0.1
00:15 10.2 8.9 98.8 1014.9 1.9 E 2.8 E 0.0 0.1
00:20 10.0 8.6 98.8 1014.8 0.1 ESE 1.4 ESE 0.0 0.0
00:25 9.8 8.3 98.8 1014.8 0.3 SW 1.4 SW 0.0 0.1
00:30 9.7 8.0 98.9 1014.7 0.0 NNE 0.0 WSW 0.0 0.1
00:35 9.5 7.9 98.9 1014.7 0.9 SE 2.1 SE 0.0 0.0
00:40 9.4 7.9 99.0 1014.6 2.4 SE 3.2 SE 0.0 0.1
00:45 9.4 8.1 99.2 1014.4 2.6 SE 3.2 SE 0.0 0.1
00:50 9.4 8.3 99.3 1014.4 2.3 SE 3.2 SE 0.0 0.1
00:55 9.5 8.5 99.4 1014.4 2.2 SE 3.2 SE 0.0 0.1
01:00 9.6 8.7 99.4 1014.4 1.9 SE 3.9 ESE 0.0 0.0
01:05 9.7 8.8 99.4 1014.3 3.3 SE 4.6 SE 0.0 0.1
01:10 9.8 8.9 99.4 1014.3 3.0 SE 6.0 SE 0.0 0.0
01:15 9.9 8.9 99.4 1014.2 4.7 SE 8.1 SSE 0.0 0.0
01:20 9.8 8.8 99.4 1014.1 5.6 SE 8.8 SE 0.0 0.1
01:25 9.8 8.7 99.3 1014.1 4.6 SE 7.8 ESE 0.0 0.1
01:30 9.7 8.5 99.3 1014.1 3.4 SSE 6.7 SE 0.0 0.0
01:35 9.8 8.4 99.4 1014.1 3.5 S 6.0 SSE 0.0 0.0
01:40 9.6 8.2 99.2 1014.1 4.0 SSW 6.4 S 0.0 0.1
01:45 9.5 8.1 99.3 1014.1 3.8 S 6.0 SSW 0.0 0.1
01:50 9.4 7.8 99.2 1014.2 2.5 S 4.9 S 0.0 0.0
01:55 9.2 7.5 99.2 1014.2 1.3 SSW 6.4 SSW 0.0 0.1
02:00 9.1 7.4 99.4 1014.3 2.2 NNW 4.9 NNW 0.0 0.1
02:05 9.0 7.5 99.3 1014.3 3.3 NNW 4.9 NNW 0.0 0.1
02:10 9.0 7.4 99.4 1014.3 2.0 SE 4.9 S 0.0 0.1
02:15 8.8 7.3 99.3 1014.3 3.1 SSE 4.9 SSE 0.0 0.1
02:20 8.8 7.2 99.5 1014.3 4.1 S 6.7 S 0.0 0.1
02:25 8.9 7.2 99.6 1014.3 3.0 S 4.9 S 0.0 0.1
02:30 8.9 7.2 99.6 1014.3 3.3 S 5.3 S 0.0 0.1
02:35 8.8 7.1 99.5 1014.3 2.2 S 5.6 SSE 0.0 0.1
02:40 8.8 7.0 99.6 1014.3 2.7 SSE 3.9 SSW 0.0 0.1
02:45 8.8 7.1 99.6 1014.3 1.3 SE 3.5 SSE 0.0 0.1
02:50 8.6 7.0 99.4 1014.3 2.0 SE 3.5 E 0.0 0.1
02:55 8.5 6.8 99.5 1014.2 1.6 SSE 2.8 S 0.0 0.1
03:00 8.5 6.8 99.6 1014.2 2.9 SSE 4.2 SE 0.0 0.1
03:05 8.4 6.8 99.6 1014.1 3.6 SE 4.6 SE 0.0 0.1
03:10 8.5 6.9 99.7 1014.0 3.3 SE 4.6 SE 0.0 0.1
03:15 8.5 6.9 99.7 1014.0 3.3 SSE 5.3 SSE 0.0 0.1
03:20 8.6 7.0 99.8 1014.0 3.6 SSE 5.3 SSE 0.0 0.1
03:25 8.6 7.0 99.7 1013.9 3.1 SSE 4.4 SSE 0.0 0.0
03:30 8.6 6.8 99.7 1014.0 2.9 SSE 4.9 S 0.0 0.1
03:35 8.4 6.7 99.5 1013.9 2.3 ESE 3.2 ESE 0.0 0.1
03:40 8.0 6.5 99.4 1013.8 3.2 ESE 4.6 E 0.0 0.1
03:45 8.0 6.4 99.6 1013.9 0.6 SSE 2.8 SSE 0.0 0.1
03:50 7.9 6.3 99.6 1013.8 2.8 ESE 3.9 ESE 0.0 0.1
03:55 7.9 6.2 99.7 1013.7 3.5 E 4.9 E 0.0 0.1
04:00 7.9 6.2 99.7 1013.7 2.4 E 3.9 E 0.0 0.1
04:05 7.8 6.2 99.7 1013.7 3.2 ENE 5.3 E 0.0 0.1
04:10 7.7 6.2 99.6 1013.6 4.4 ESE 5.6 E 0.0 0.1
04:15 7.6 6.2 99.7 1013.6 2.5 ESE 3.2 ESE 0.0 0.1
04:20 7.6 6.1 99.8 1013.8 2.0 SSW 3.2 SW 0.0 0.2
04:25 7.9 6.0 100.0 1013.8 1.8 ESE 2.8 E 0.0 0.5
04:30 7.8 6.0 99.9 1013.8 1.9 ESE 3.2 ESE 0.0 1.0
04:35 8.0 6.0 100.0 1013.9 2.5 S 4.6 S 0.0 2.1
04:40 8.2 6.1 100.0 1013.9 3.7 SSE 6.4 SSE 0.0 3.8
04:45 8.2 6.3 100.0 1013.8 2.3 SSE 4.9 SSE 0.0 6.0
04:50 8.1 6.3 99.8 1013.9 2.2 SSE 3.2 SSE 0.0 8.0
04:55 7.8 6.1 99.6 1013.9 2.7 SSE 4.6 SSW 0.0 10.3
05:00 7.6 6.1 99.7 1013.9 2.6 E 4.9 E 0.0 12.9
05:05 7.6 6.1 99.9 1013.8 4.3 E 5.6 E 0.0 15.0
05:10 7.8 6.2 100.0 1013.8 3.8 E 4.9 E 0.0 17.0
05:15 7.9 6.3 100.0 1013.9 3.4 E 3.9 ENE 0.0 19.0
05:20 8.0 6.5 99.9 1013.8 3.8 E 5.3 E 0.0 21.0
05:25 8.1 6.6 100.0 1013.8 4.0 E 5.3 E 0.0 23.0
05:30 8.3 6.8 100.0 1013.7 4.1 E 5.3 E 0.0 49.0
05:35 8.4 6.9 100.0 1013.7 2.6 E 3.9 E 0.0 137.5
05:40 8.8 7.1 100.0 1013.7 0.5 E 2.1 E 0.0 154.7
05:45 9.4 7.3 99.8 1013.7 0.4 ESE 2.1 E 0.0 168.4
05:50 9.8 8.2 99.3 1013.8 0.4 E 1.4 ESE 0.0 181.5
05:55 10.2 9.4 98.8 1013.9 0.0 NNE 0.0 NE 0.0 194.0
06:00 10.4 10.0 98.2 1013.8 2.0 E 3.2 E 0.0 207.1
06:05 10.9 11.1 98.2 1013.8 1.7 ENE 3.2 ENE 0.0 220.4
06:10 11.2 12.1 97.7 1013.8 2.1 ENE 3.5 ENE 0.0 233.7
06:15 11.8 13.1 97.4 1013.8 1.2 N 3.5 N 0.0 245.3
06:20 12.1 13.8 96.7 1013.8 1.2 N 2.1 N 0.0 243.2
06:25 12.5 14.6 96.4 1013.9 0.8 NNE 2.8 NE 0.0 272.9
06:30 12.6 15.3 95.5 1013.9 2.3 N 4.6 N 0.0 285.9
06:35 12.5 15.3 95.1 1014.0 2.8 NNW 4.9 N 0.0 299.8
06:40 12.4 15.6 94.8 1014.0 3.6 NW 4.9 NW 0.0 313.9
06:45 12.4 15.7 94.3 1014.1 3.8 N 5.6 N 0.0 328.2
06:50 12.6 16.1 93.6 1014.0 2.4 NNW 4.2 N 0.0 343.4
06:55 12.6 16.6 92.6 1014.1 2.1 NW 3.2 NNW 0.0 358.0
07:00 12.8 17.2 92.5 1014.1 3.4 WNW 4.9 WNW 0.0 372.7
07:05 12.9 17.6 92.0 1014.2 2.0 WNW 4.2 NW 0.0 387.2
07:10 13.0 17.7 90.8 1014.1 0.8 WNW 2.5 WNW 0.0 401.7
07:15 13.3 18.6 88.8 1014.1 1.9 WNW 4.2 W 0.0 416.8
07:20 13.6 19.0 87.1 1014.2 2.1 WSW 5.6 WSW 0.0 431.7
07:25 13.9 19.1 85.9 1014.2 1.2 W 3.5 W 0.0 447.6
07:30 14.4 19.7 85.3 1014.2 1.1 SSW 4.2 S 0.0 462.3
07:35 14.8 20.1 81.6 1014.2 2.3 SW 6.4 SW 0.0 477.0
07:40 15.3 20.1 77.9 1014.2 2.2 S 4.9 SSW 0.0 492.2
07:45 15.8 20.5 76.2 1014.3 2.1 SW 7.1 SW 0.0 506.0
07:50 15.3 20.8 73.9 1014.3 5.5 WSW 8.1 WSW 0.0 519.7
07:55 15.1 21.1 74.0 1014.3 4.5 W 6.7 WNW 0.0 533.1
08:00 15.2 21.2 76.4 1014.3 5.0 W 8.5 WNW 0.0 546.1
08:05 15.1 21.5 80.7 1014.4 5.2 WNW 7.8 WNW 0.0 560.4
08:10 14.6 21.9 83.0 1014.4 5.6 WNW 8.5 W 0.0 572.5
08:15 14.7 22.3 82.8 1014.4 5.3 NW 8.8 NW 0.0 587.6
08:20 14.9 22.5 82.0 1014.3 3.5 NW 7.1 NW 0.0 604.2
08:25 15.1 22.8 81.6 1014.3 5.1 NW 7.8 WNW 0.0 613.9
08:30 15.1 22.7 79.2 1014.4 3.8 NW 9.2 N 0.0 625.0
08:35 15.3 22.2 79.0 1014.4 3.6 N 7.1 NW 0.0 643.1
08:40 15.6 22.3 79.1 1014.4 6.6 NNW 13.1 NNW 0.0 585.3
08:45 15.5 22.0 80.7 1014.4 3.7 NNW 9.2 NW 0.0 666.2
08:50 15.7 22.7 80.6 1014.5 5.2 W 9.5 WNW 0.0 637.9
08:55 15.9 23.0 79.1 1014.4 6.9 W 14.8 W 0.0 711.7
09:00 15.9 23.6 77.8 1014.4 6.7 WSW 14.8 WSW 0.0 711.9
09:05 16.5 23.8 73.3 1014.4 10.6 SW 18.4 W 0.0 723.0
09:10 17.0 23.9 70.5 1014.4 10.0 SW 25.1 WSW 0.0 729.1
09:15 16.9 23.8 69.1 1014.5 12.0 WSW 20.1 WSW 0.0 732.2
09:20 16.8 23.6 69.2 1014.5 10.6 WSW 18.0 WSW 0.0 746.5
09:25 17.0 23.6 69.7 1014.5 10.4 WSW 18.4 SW 0.0 766.3
09:30 17.0 23.5 71.9 1014.6 10.3 SW 22.6 WSW 0.0 819.0
09:35 17.4 23.8 69.7 1014.6 11.2 WSW 20.8 W 0.0 705.4
09:40 16.8 23.3 67.9 1014.6 14.6 WSW 24.0 W 0.0 700.9
09:45 16.9 22.6 70.7 1014.6 9.5 WSW 17.6 WSW 0.0 687.3
09:50 17.3 22.7 69.6 1014.6 10.1 WSW 19.4 WSW 0.0 727.4
09:55 17.3 23.1 67.6 1014.6 10.9 SW 21.2 SW 0.0 808.0
10:00 17.6 23.7 65.8 1014.6 12.0 WSW 21.9 W 0.0 812.0
10:05 17.8 24.0 67.4 1014.6 11.6 WSW 20.5 WSW 0.0 820.0
10:10 17.8 24.0 64.1 1014.6 12.6 SW 23.3 SW 0.0 830.0
10:15 18.1 23.9 64.7 1014.6 13.0 SW 26.1 SW 0.0 837.0
10:20 18.2 24.2 62.7 1014.5 11.7 SW 21.9 WSW 0.0 844.0
10:25 18.2 24.3 62.2 1014.5 13.5 SW 27.9 WSW 0.0 855.0
10:30 18.1 24.3 61.4 1014.5 13.7 WSW 31.1 WSW 0.0 868.0
10:35 18.3 24.5 63.0 1014.4 12.3 SW 25.4 SSW 0.0 870.0
10:40 18.6 24.6 62.3 1014.4 10.6 SW 24.7 SW 0.0 872.0
10:45 18.8 24.9 60.2 1014.3 10.7 SW 18.7 W 0.0 880.0
10:50 19.3 25.7 62.3 1014.3 8.8 SW 18.0 WSW 0.0 889.0
10:55 19.2 26.0 60.4 1014.3 11.4 SW 20.8 W 0.0 895.0
11:00 19.3 26.1 60.2 1014.3 11.4 SW 26.1 SW 0.0 801.0
11:05 18.9 25.2 60.6 1014.3 10.7 SSW 27.5 SW 0.0 841.0
11:10 18.8 24.2 61.3 1014.3 10.9 SSW 24.3 SW 0.0 697.0
11:15 18.9 24.7 60.7 1014.3 10.9 SW 21.5 WSW 0.0 903.0
11:20 19.3 25.5 61.8 1014.2 11.6 SW 24.3 SSW 0.0 974.0
11:25 19.1 25.3 57.1 1014.2 15.5 WSW 28.9 W 0.0 785.1
11:30 19.1 25.5 58.3 1014.2 12.3 SW 24.7 WSW 0.0 960.0
11:35 19.7 25.9 54.2 1014.2 12.0 SW 23.6 SW 0.0 1005.0
11:40 19.9 26.4 56.8 1014.2 11.8 SW 25.8 SW 0.0 1009.0
11:45 20.1 26.8 54.9 1014.2 12.9 SW 32.5 SW 0.0 868.0
11:50 19.6 25.1 54.5 1014.2 13.4 SW 30.3 SW 0.0 389.6
11:55 19.0 23.5 54.8 1014.1 14.2 SW 29.6 SW 0.0 876.0
12:00 19.6 24.4 53.1 1014.1 15.3 SW 34.6 WSW 0.0 626.2
12:05 19.5 24.3 54.6 1014.0 12.3 SW 27.2 SW 0.0 988.0
12:10 20.0 25.4 51.5 1013.9 13.5 SW 30.7 WSW 0.0 985.0
12:15 20.1 26.0 50.4 1013.9 13.7 SW 32.5 SW 0.0 974.0
12:20 20.4 26.3 52.7 1013.9 11.6 SW 26.1 SSW 0.0 941.0
12:25 20.6 26.6 50.3 1013.8 14.1 SW 33.5 SW 0.0 840.0
12:30 20.1 25.8 49.3 1013.8 11.6 SSW 27.9 SSW 0.0 897.0
12:35 20.3 25.6 49.7 1013.7 12.0 SSW 30.7 SW 0.0 873.0
12:40 20.2 25.7 49.3 1013.7 15.3 SW 32.5 SW 0.0 905.0
12:45 20.1 25.5 49.3 1013.7 12.8 SSW 31.4 SSW 0.0 887.0
12:50 20.0 25.7 47.6 1013.6 15.0 WSW 29.6 WSW 0.0 801.0
12:55 19.6 25.1 50.9 1013.5 13.2 SW 22.6 WSW 0.0 893.0
13:00 20.2 25.6 49.2 1013.5 15.5 SW 33.2 WSW 0.0 962.0
13:05 20.3 25.8 50.0 1013.5 13.0 SW 26.5 WSW 0.0 832.0
13:10 20.4 25.8 48.7 1013.5 14.3 SW 27.2 SW 0.0 871.0
13:15 20.6 26.2 47.9 1013.5 12.6 SW 27.2 SSW 0.0 884.0
13:20 20.7 26.3 47.1 1013.4 14.3 SW 38.8 S 0.0 871.0
13:25 20.9 26.2 48.8 1013.3 10.7 SW 21.9 SSW 0.0 864.0
13:30 20.8 26.2 46.7 1013.3 13.7 SW 30.0 SSW 0.0 861.0
13:35 20.7 26.3 46.8 1013.3 15.1 SW 34.2 SSW 0.0 890.0
13:40 20.6 26.3 47.9 1013.2 10.8 WSW 22.6 WSW 0.0 765.0
13:45 20.8 26.5 47.6 1013.1 12.0 SW 23.6 WSW 0.0 880.0
13:50 20.9 26.8 47.1 1013.1 12.7 SW 24.3 SW 0.0 650.3
13:55 20.8 25.9 45.9 1013.0 11.9 SSW 32.1 SSW 0.0 777.0
14:00 21.0 26.2 46.8 1013.0 12.1 WSW 25.1 WSW 0.0 423.0
14:05 20.3 24.2 45.9 1013.0 11.8 WSW 22.2 WSW 0.0 194.9
14:10 20.1 23.4 46.5 1012.9 13.0 SW 26.5 W 0.0 666.1
14:15 20.4 23.8 45.4 1012.8 10.2 SW 17.3 W 0.0 375.7
14:20 20.5 24.4 45.2 1012.7 10.3 SW 25.1 S 0.0 793.7
14:25 21.2 25.8 40.9 1012.7 10.1 SSW 27.5 WSW 0.0 751.1
14:30 21.4 26.6 41.1 1012.6 9.7 SSW 23.6 WSW 0.0 736.1
14:35 21.4 26.9 40.4 1012.5 11.1 SW 27.9 WSW 0.0 731.9
14:40 21.3 27.1 40.9 1012.5 14.4 SW 29.6 S 0.0 706.9
14:45 21.0 26.6 40.4 1012.4 14.3 SW 31.1 W 0.0 696.0
14:50 21.0 26.2 41.1 1012.3 16.9 SW 35.6 SW 0.0 695.5
14:55 20.9 26.2 42.2 1012.4 13.7 SW 32.8 SW 0.0 687.1
15:00 20.9 26.3 42.1 1012.3 14.6 SW 33.5 SW 0.0 660.7
15:05 21.0 26.6 41.8 1012.3 13.2 SW 27.5 SW 0.0 657.0
15:10 21.1 26.7 41.3 1012.2 12.3 SW 22.2 SW 0.0 645.0
15:15 21.0 26.6 42.5 1012.2 10.9 SW 24.7 SSW 0.0 590.6
15:20 21.2 26.9 42.3 1012.1 11.3 SW 19.8 SW 0.0 613.8
15:25 21.3 27.0 41.7 1012.1 12.6 SW 27.2 SSW 0.0 616.4
15:30 21.1 26.4 39.3 1012.0 12.3 SSW 36.3 S 0.0 622.4
15:35 21.1 26.3 39.4 1012.1 15.9 SW 28.2 WSW 0.0 635.5
15:40 21.2 26.5 39.8 1012.0 10.4 SW 27.5 SW 0.0 569.1
15:45 21.2 26.6 40.0 1012.0 12.0 SW 26.1 SW 0.0 548.1
15:50 21.1 26.5 39.5 1011.9 13.3 SW 30.0 SW 0.0 536.8
15:55 21.1 26.3 40.4 1011.9 14.9 WSW 29.3 WSW 0.0 518.0
16:00 21.0 26.2 41.3 1011.9 11.9 SW 25.8 WSW 0.0 530.6
16:05 21.3 26.4 41.4 1011.9 12.9 SW 30.0 WSW 0.0 492.4
16:10 21.1 25.6 41.2 1011.9 9.1 SW 21.2 SW 0.0 251.8
16:15 20.4 23.8 44.1 1011.9 9.0 SW 23.6 S 0.0 338.2
16:20 20.7 24.2 47.7 1011.8 10.4 S 25.1 SSW 0.0 506.0
16:25 20.7 24.7 49.2 1011.8 8.7 S 19.8 SW 0.0 455.8
16:30 20.7 25.0 51.7 1011.7 9.0 S 21.2 SE 0.0 449.2
16:35 20.4 24.6 52.6 1011.7 10.1 S 25.4 S 0.0 430.2
16:40 20.4 24.3 52.4 1011.8 11.6 S 25.4 SSW 0.0 427.6
16:45 20.1 23.2 53.6 1011.8 9.5 SSW 24.7 SSE 0.0 135.8
16:50 19.8 22.0 54.8 1011.8 9.4 SSW 20.5 S 0.0 363.4
16:55 19.8 21.2 54.2 1011.9 11.8 S 27.5 S 0.0 227.8
17:00 19.8 20.4 54.3 1011.9 7.8 S 21.9 SSW 0.0 260.4
17:05 19.7 20.8 53.8 1012.0 12.8 S 24.3 SSW 0.0 266.5
17:10 19.6 21.4 54.1 1012.1 11.0 SSW 24.0 SSW 0.0 262.8
17:15 19.5 21.5 53.9 1012.1 11.6 S 22.6 S 0.0 134.9
17:20 18.8 19.8 55.0 1012.1 10.0 S 24.3 SSW 0.0 40.4
17:25 18.2 18.4 57.1 1012.1 9.2 S 22.6 SSW 0.0 48.2
17:30 17.9 17.7 58.6 1012.2 6.7 S 17.3 WSW 0.0 52.5
17:35 17.7 17.3 59.5 1012.2 7.2 S 17.6 SSE 0.0 44.7
17:40 17.5 17.1 59.9 1012.3 9.1 SSW 19.4 S 0.0 45.4
17:45 17.4 16.9 60.3 1012.3 6.6 SSW 15.5 SSW 0.0 46.6
17:50 17.4 16.9 60.7 1012.3 7.7 SSW 15.2 SSW 0.0 45.9
17:55 17.3 16.8 60.1 1012.4 9.6 SSW 22.6 SSW 0.0 42.1
18:00 17.3 16.7 58.2 1012.5 9.7 SSW 21.9 S 0.0 26.3
18:05 17.2 16.6 56.9 1012.6 10.6 SSW 28.2 SSE 0.0 18.0
18:10 17.2 16.6 54.9 1012.7 11.8 SSW 27.9 SSW 0.0 26.7
18:15 17.1 16.6 55.1 1012.8 11.7 SW 25.1 SW 0.0 43.8
18:20 16.7 16.4 62.5 1013.1 12.8 SW 30.3 SW 0.0 27.9
18:25 16.3 16.1 65.7 1013.1 9.1 WSW 15.2 WSW 0.0 21.6
18:30 16.0 15.8 67.4 1013.2 6.4 SW 13.1 WSW 0.0 28.9
18:35 15.9 15.6 68.2 1013.2 8.5 SW 18.0 WSW 0.0 29.5
18:40 15.6 15.3 68.4 1013.2 8.3 SW 17.6 SSW 0.0 12.5
18:45 15.4 14.9 69.1 1013.3 6.2 SSW 10.6 S 0.0 7.6
18:50 15.2 14.6 69.4 1013.3 5.5 SSW 11.6 SW 0.0 6.7
18:55 15.1 14.3 69.6 1013.3 6.8 S 10.2 SSW 0.0 4.2
19:00 15.1 14.2 68.7 1013.3 6.5 SSW 12.7 SW 0.0 2.7
19:05 15.1 14.2 68.3 1013.4 6.8 SW 14.1 SSW 0.0 1.7
Máxima 21.4 27.1 100.0 1015.1 16.9 SW 38.8 S 0.0 1009.0
Mínima 7.6 6.0 39.3 1011.7
Total 0.0